Time;durP1;ratioP1;P1;durP2;ratioP2;P2;SDS_P1;SDS_P2;PMS_P1;PMS_P2;Temp;Humidity;BMP_temperature;BMP_pressure;BME280_temperature;BME280_humidity;BME280_pressure;Samples;Min_cycle;Max_cycle;Signal;HPM_P1;HPM_P2
2022/08/27 00:01:29;;;;;;;9.40;2.38;;;19.10;99.90;;;;;;5069568;28;20040;-84
2022/08/27 00:03:56;;;;;;;9.18;2.40;;;19.00;99.90;;;;;;5069470;28;20409;-85
2022/08/27 00:06:23;;;;;;;9.07;2.20;;;19.00;99.90;;;;;;5053546;28;20033;-84
2022/08/27 00:08:49;;;;;;;9.30;2.00;;;19.00;99.90;;;;;;5052378;28;20043;-84
2022/08/27 00:11:17;;;;;;;8.13;2.47;;;18.90;99.90;;;;;;5053479;28;20036;-84
2022/08/27 00:13:44;;;;;;;9.35;2.42;;;19.00;99.90;;;;;;5059917;28;20037;-84
2022/08/27 00:16:12;;;;;;;7.70;2.25;;;18.90;99.90;;;;;;5033055;28;20072;-84
2022/08/27 00:18:39;;;;;;;9.80;2.60;;;18.80;99.90;;;;;;5058391;28;20041;-84
2022/08/27 00:21:05;;;;;;;7.88;2.25;;;18.80;99.90;;;;;;5032584;28;20040;-84
2022/08/27 00:23:30;;;;;;;7.80;2.33;;;18.80;99.90;;;;;;5058132;28;20079;-84
2022/08/27 00:25:57;;;;;;;11.10;2.60;;;18.80;99.90;;;;;;5049171;28;20072;-84
2022/08/27 00:28:26;;;;;;;7.95;2.30;;;18.80;99.90;;;;;;5049862;28;20037;-84
2022/08/27 00:30:52;;;;;;;6.75;2.20;;;18.80;99.90;;;;;;5049375;28;20067;-84
2022/08/27 00:33:17;;;;;;;8.55;2.70;;;18.70;99.90;;;;;;5069097;28;20036;-84
2022/08/27 00:35:43;;;;;;;9.43;2.47;;;18.70;99.90;;;;;;5064463;28;20036;-85
2022/08/27 00:38:08;;;;;;;8.65;2.60;;;18.60;99.90;;;;;;5049526;28;20045;-84
2022/08/27 00:40:34;;;;;;;7.82;2.50;;;18.60;99.90;;;;;;5057458;28;20068;-84
2022/08/27 00:43:02;;;;;;;7.93;2.30;;;18.60;99.90;;;;;;5049038;28;20628;-84
2022/08/27 00:45:29;;;;;;;8.35;2.55;;;18.60;99.90;;;;;;5053709;28;20040;-84
2022/08/27 00:47:57;;;;;;;9.75;2.63;;;18.60;99.90;;;;;;5052320;28;20557;-84
2022/08/27 00:50:40;;;;;;;9.75;2.67;;;18.60;99.90;;;;;;5051868;28;20044;-84
2022/08/27 00:53:16;;;;;;;7.93;2.53;;;18.60;99.90;;;;;;5035053;28;20087;-84
2022/08/27 00:55:46;;;;;;;9.00;2.53;;;18.60;99.90;;;;;;5049036;28;20037;-84
2022/08/27 00:58:21;;;;;;;8.73;2.30;;;18.50;99.90;;;;;;5059883;28;20441;-84
2022/08/27 01:00:47;;;;;;;8.85;2.42;;;18.50;99.90;;;;;;5068776;28;20037;-84
2022/08/27 01:03:14;;;;;;;9.65;2.55;;;18.50;99.90;;;;;;5051112;28;20036;-84
2022/08/27 01:05:41;;;;;;;7.28;2.30;;;18.50;99.90;;;;;;5068721;28;20048;-84
2022/08/27 01:08:19;;;;;;;7.95;2.30;;;18.50;99.90;;;;;;5069447;28;20076;-84
2022/08/27 01:10:45;;;;;;;10.68;3.00;;;18.40;99.90;;;;;;5068525;28;20041;-84
2022/08/27 01:13:16;;;;;;;9.07;2.53;;;18.40;99.90;;;;;;5051954;28;20095;-84
2022/08/27 01:15:42;;;;;;;8.27;2.45;;;18.40;99.90;;;;;;5068630;28;20028;-84
2022/08/27 01:18:12;;;;;;;7.85;2.50;;;18.40;99.90;;;;;;5053235;28;20036;-84
2022/08/27 01:20:59;;;;;;;9.20;2.90;;;18.40;99.90;;;;;;5048563;28;20090;-84
2022/08/27 01:23:41;;;;;;;9.55;2.60;;;18.40;99.90;;;;;;5049352;28;20044;-84
2022/08/27 01:26:08;;;;;;;7.47;2.45;;;18.30;99.90;;;;;;5052665;28;20055;-84
2022/08/27 01:28:36;;;;;;;7.22;2.50;;;18.30;99.90;;;;;;5067788;28;20090;-84
2022/08/27 01:31:07;;;;;;;7.93;2.60;;;18.30;99.90;;;;;;5068844;28;20092;-84
2022/08/27 01:33:33;;;;;;;6.85;2.42;;;18.30;99.90;;;;;;5051480;28;20044;-84
2022/08/27 01:35:59;;;;;;;10.02;3.00;;;18.20;99.90;;;;;;5051187;28;20382;-84
2022/08/27 01:38:26;;;;;;;8.50;2.55;;;18.20;99.90;;;;;;5072311;28;20040;-84
2022/08/27 01:40:52;;;;;;;9.48;3.08;;;18.20;99.90;;;;;;5055070;28;20043;-84
2022/08/27 01:43:18;;;;;;;8.20;2.40;;;18.20;99.90;;;;;;5055822;28;20041;-84
2022/08/27 01:45:47;;;;;;;9.00;2.70;;;18.20;99.90;;;;;;5072647;28;20494;-84
2022/08/27 01:48:14;;;;;;;9.65;2.90;;;18.10;99.90;;;;;;5066894;28;20036;-84
2022/08/27 01:50:41;;;;;;;11.55;2.75;;;18.10;99.90;;;;;;5063730;28;20053;-84
2022/08/27 01:53:17;;;;;;;8.82;3.05;;;18.10;99.90;;;;;;5064855;28;20047;-84
2022/08/27 01:55:45;;;;;;;7.07;2.60;;;18.10;99.90;;;;;;5072352;28;20039;-84
2022/08/27 01:58:11;;;;;;;9.15;2.55;;;18.10;99.90;;;;;;5072360;28;20123;-84
2022/08/27 02:00:40;;;;;;;8.95;2.60;;;18.00;99.90;;;;;;5071733;28;20037;-84
2022/08/27 02:03:08;;;;;;;10.50;2.67;;;18.00;99.90;;;;;;5055135;28;20409;-84
2022/08/27 02:05:34;;;;;;;8.88;2.80;;;18.00;99.90;;;;;;5070845;28;20040;-84
2022/08/27 02:08:00;;;;;;;7.20;2.85;;;18.00;99.90;;;;;;5035829;28;20194;-84
2022/08/27 02:10:30;;;;;;;8.77;3.08;;;18.00;99.90;;;;;;5054900;28;20080;-84
2022/08/27 02:12:55;;;;;;;7.80;2.75;;;18.00;99.90;;;;;;5040544;28;20098;-85
2022/08/27 02:15:23;;;;;;;9.82;3.00;;;18.00;99.90;;;;;;5035410;28;20120;-85
2022/08/27 02:17:49;;;;;;;9.43;2.63;;;18.00;99.90;;;;;;5060651;28;20041;-85
2022/08/27 02:20:15;;;;;;;9.10;2.72;;;17.90;99.90;;;;;;5052439;28;20402;-85
2022/08/27 02:22:42;;;;;;;7.78;2.72;;;17.90;99.90;;;;;;5051429;28;20037;-85
2022/08/27 02:25:11;;;;;;;10.75;2.75;;;17.90;99.90;;;;;;5067716;28;20127;-85
2022/08/27 02:27:36;;;;;;;7.95;2.30;;;17.90;99.90;;;;;;5054974;28;20041;-85
2022/08/27 02:30:03;;;;;;;9.25;2.83;;;17.90;99.90;;;;;;5071655;28;20036;-85
2022/08/27 02:32:29;;;;;;;9.48;2.30;;;17.90;99.90;;;;;;5036272;28;20052;-85
2022/08/27 02:34:55;;;;;;;9.20;3.00;;;17.90;99.90;;;;;;5035004;28;20055;-85
2022/08/27 02:37:21;;;;;;;7.70;3.03;;;17.90;99.90;;;;;;5043221;28;20037;-85
2022/08/27 02:39:46;;;;;;;9.45;2.65;;;17.80;99.90;;;;;;5051953;28;20125;-86
2022/08/27 02:42:12;;;;;;;7.55;2.50;;;17.80;99.90;;;;;;5050544;28;20041;-85
2022/08/27 02:44:38;;;;;;;8.55;2.40;;;17.90;99.90;;;;;;5066197;28;20115;-85
2022/08/27 02:47:04;;;;;;;8.60;2.42;;;17.80;99.90;;;;;;5054889;28;20043;-85
2022/08/27 02:49:30;;;;;;;9.77;2.65;;;17.80;99.90;;;;;;5070069;28;20037;-85
2022/08/27 02:51:57;;;;;;;6.28;2.38;;;17.80;99.90;;;;;;5071623;28;20043;-85
2022/08/27 02:54:24;;;;;;;8.20;2.50;;;17.80;99.90;;;;;;5047710;28;20068;-85
2022/08/27 02:56:51;;;;;;;8.70;2.55;;;17.80;99.90;;;;;;5051182;28;20052;-85
2022/08/27 02:59:17;;;;;;;10.90;2.50;;;17.80;99.90;;;;;;5041468;28;20025;-85
2022/08/27 03:01:43;;;;;;;7.75;2.45;;;17.80;99.90;;;;;;5070177;28;20519;-85
2022/08/27 03:04:10;;;;;;;9.13;2.70;;;17.70;99.90;;;;;;5054116;28;20123;-84
2022/08/27 03:06:35;;;;;;;7.80;2.22;;;17.70;99.90;;;;;;5054406;28;20044;-85
2022/08/27 03:09:01;;;;;;;8.00;2.50;;;17.70;99.90;;;;;;5071179;28;20044;-85
2022/08/27 03:11:26;;;;;;;7.80;2.20;;;17.70;99.90;;;;;;5070187;28;20064;-85
2022/08/27 03:13:52;;;;;;;9.45;2.50;;;17.70;99.90;;;;;;5070830;28;20602;-85
2022/08/27 03:16:18;;;;;;;9.55;2.30;;;17.70;99.90;;;;;;5070094;28;20044;-85
2022/08/27 03:18:44;;;;;;;7.90;2.25;;;17.70;99.90;;;;;;5071444;28;20398;-85
2022/08/27 03:21:20;;;;;;;8.73;2.33;;;17.60;99.90;;;;;;5053352;28;20059;-85
2022/08/27 03:23:47;;;;;;;8.65;2.22;;;17.60;99.90;;;;;;5053961;28;20055;-85
2022/08/27 03:26:13;;;;;;;8.60;2.65;;;17.60;99.90;;;;;;5070629;28;20041;-85
2022/08/27 03:28:39;;;;;;;7.25;2.53;;;17.60;99.90;;;;;;5070508;28;20564;-85
2022/08/27 03:31:11;;;;;;;8.27;2.38;;;17.50;99.90;;;;;;5071285;28;20516;-85
2022/08/27 03:33:38;;;;;;;10.00;2.10;;;17.50;99.90;;;;;;5069763;28;20054;-86
2022/08/27 03:36:06;;;;;;;7.40;2.30;;;17.40;99.90;;;;;;5053765;28;20055;-85
2022/08/27 03:38:32;;;;;;;6.97;2.00;;;17.40;99.90;;;;;;5053143;28;20033;-85
2022/08/27 03:40:58;;;;;;;8.52;2.70;;;17.30;99.90;;;;;;5070203;28;20094;-85
2022/08/27 03:43:24;;;;;;;9.02;2.20;;;17.30;99.90;;;;;;5053682;28;20059;-85
2022/08/27 03:45:51;;;;;;;6.93;2.22;;;17.20;99.90;;;;;;5070139;28;20125;-85
2022/08/27 03:48:17;;;;;;;7.32;2.42;;;17.20;99.90;;;;;;5052124;28;20037;-85
2022/08/27 03:50:45;;;;;;;6.50;2.10;;;17.20;99.90;;;;;;5033812;28;20067;-85
2022/08/27 03:53:12;;;;;;;9.20;2.60;;;17.20;99.90;;;;;;5059646;28;20044;-85
2022/08/27 03:55:38;;;;;;;8.05;2.30;;;17.20;99.90;;;;;;5053730;28;20032;-85
2022/08/27 03:58:04;;;;;;;8.18;2.63;;;17.10;99.90;;;;;;5052334;28;20051;-85
2022/08/27 04:00:30;;;;;;;10.02;3.03;;;17.10;99.90;;;;;;5054695;28;20045;-85
2022/08/27 04:02:55;;;;;;;8.10;2.47;;;17.10;99.90;;;;;;5050001;28;20152;-85
2022/08/27 04:05:21;;;;;;;6.93;2.33;;;17.10;99.90;;;;;;5057043;28;20492;-85
2022/08/27 04:07:47;;;;;;;7.38;2.45;;;17.00;99.90;;;;;;5069912;28;20044;-85
2022/08/27 04:10:14;;;;;;;8.95;2.50;;;17.10;99.90;;;;;;5070529;28;20039;-85
2022/08/27 04:12:40;;;;;;;7.80;2.40;;;17.00;99.90;;;;;;5061329;28;20136;-85
2022/08/27 04:15:08;;;;;;;8.43;2.38;;;17.00;99.90;;;;;;5069859;28;20040;-85
2022/08/27 04:17:33;;;;;;;8.00;2.53;;;17.00;99.90;;;;;;5069498;28;20050;-85
2022/08/27 04:19:59;;;;;;;9.30;2.65;;;16.90;99.90;;;;;;5056691;28;20037;-85
2022/08/27 04:22:25;;;;;;;8.35;2.50;;;16.90;99.90;;;;;;5032727;28;20090;-85
2022/08/27 04:24:51;;;;;;;8.52;2.72;;;16.90;99.90;;;;;;5058051;28;20032;-85
2022/08/27 04:27:17;;;;;;;7.97;2.53;;;16.90;99.90;;;;;;5052894;28;20043;-85
2022/08/27 04:29:43;;;;;;;8.27;2.40;;;16.90;99.90;;;;;;5069314;28;20045;-85
2022/08/27 04:32:09;;;;;;;8.40;2.40;;;16.90;99.90;;;;;;5039177;28;20275;-85
2022/08/27 04:34:35;;;;;;;8.77;2.53;;;16.90;99.90;;;;;;5032519;28;20045;-85
2022/08/27 04:37:02;;;;;;;8.32;2.78;;;16.80;99.90;;;;;;5034655;28;20120;-85
2022/08/27 04:39:29;;;;;;;8.18;2.58;;;16.80;99.90;;;;;;5052745;28;20040;-85
2022/08/27 04:41:56;;;;;;;7.68;2.80;;;16.70;99.90;;;;;;5069126;28;20040;-85
2022/08/27 04:44:23;;;;;;;8.20;2.55;;;16.70;99.90;;;;;;5065050;28;20037;-85
2022/08/27 04:46:56;;;;;;;7.53;2.65;;;16.60;99.90;;;;;;5049548;28;20106;-85
2022/08/27 04:49:21;;;;;;;7.13;1.88;;;16.60;99.90;;;;;;5032600;28;20089;-85
2022/08/27 04:51:47;;;;;;;7.30;2.35;;;16.50;99.90;;;;;;5065547;28;20115;-85
2022/08/27 04:54:12;;;;;;;9.80;2.83;;;16.40;99.90;;;;;;5052546;28;20041;-85
2022/08/27 04:56:38;;;;;;;7.43;2.58;;;16.40;99.90;;;;;;5048973;28;20044;-85
2022/08/27 04:59:06;;;;;;;7.47;2.42;;;16.50;99.90;;;;;;5063554;28;20028;-85
2022/08/27 05:01:33;;;;;;;8.13;2.40;;;16.40;99.90;;;;;;5069091;28;20042;-84
2022/08/27 05:03:58;;;;;;;8.63;2.85;;;16.40;99.90;;;;;;5057916;28;20083;-84
2022/08/27 05:06:24;;;;;;;7.10;2.38;;;16.40;99.90;;;;;;5049133;28;20125;-85
2022/08/27 05:08:51;;;;;;;8.88;2.50;;;16.40;99.90;;;;;;5062740;28;20033;-85
2022/08/27 05:11:19;;;;;;;7.82;2.63;;;16.40;99.90;;;;;;5068908;28;20040;-85
2022/08/27 05:13:46;;;;;;;7.90;2.58;;;16.40;99.90;;;;;;5051980;28;20041;-85
2022/08/27 05:16:18;;;;;;;7.72;2.42;;;16.40;99.90;;;;;;5054154;28;20437;-85
2022/08/27 05:18:46;;;;;;;6.00;1.70;;;16.40;99.90;;;;;;5049011;28;20045;-85
2022/08/27 05:21:33;;;;;;;9.63;2.63;;;16.40;99.90;;;;;;5044430;28;20046;-85
2022/08/27 05:24:01;;;;;;;7.85;2.40;;;16.40;99.90;;;;;;5068717;28;20044;-85
2022/08/27 05:26:28;;;;;;;7.95;2.70;;;16.50;99.90;;;;;;5067463;28;20408;-85
2022/08/27 05:28:54;;;;;;;6.85;2.55;;;16.50;99.90;;;;;;5052647;28;20047;-85
2022/08/27 05:31:21;;;;;;;8.80;2.60;;;16.50;99.90;;;;;;5051342;28;20052;-85
2022/08/27 05:33:47;;;;;;;6.32;1.83;;;16.50;99.90;;;;;;5068588;28;20040;-85
2022/08/27 05:36:16;;;;;;;7.15;2.20;;;16.60;99.90;;;;;;5068603;28;20033;-85
2022/08/27 05:38:42;;;;;;;9.68;2.47;;;16.60;99.90;;;;;;5061055;28;20037;-85
2022/08/27 05:41:10;;;;;;;7.60;2.35;;;16.60;99.90;;;;;;5054694;28;20136;-85
2022/08/27 05:43:38;;;;;;;7.55;2.45;;;16.60;99.90;;;;;;5036331;28;20059;-85
2022/08/27 05:46:06;;;;;;;7.70;2.47;;;16.60;99.90;;;;;;5056773;28;20087;-85
2022/08/27 05:48:32;;;;;;;8.50;2.65;;;16.60;99.90;;;;;;5048240;28;20090;-85
2022/08/27 05:51:10;;;;;;;7.60;2.78;;;16.60;99.90;;;;;;5056487;28;20047;-85
2022/08/27 05:53:36;;;;;;;9.20;2.85;;;16.60;99.90;;;;;;5048507;28;20124;-85
2022/08/27 05:56:02;;;;;;;8.70;2.70;;;16.70;99.90;;;;;;5048037;28;20029;-85
2022/08/27 06:01:12;;;;;;;10.60;2.83;;;16.70;99.90;;;;;;5048042;28;20064;-85
2022/08/27 06:03:39;;;;;;;7.88;2.70;;;16.70;99.90;;;;;;5060552;28;20127;-85
2022/08/27 06:06:08;;;;;;;7.97;2.47;;;16.80;99.90;;;;;;5051734;28;20045;-85
2022/08/27 06:08:36;;;;;;;8.45;2.50;;;16.80;99.90;;;;;;5045564;28;20399;-85
2022/08/27 06:11:04;;;;;;;7.50;2.35;;;16.90;99.90;;;;;;5048369;28;20045;-85
2022/08/27 06:13:31;;;;;;;7.65;2.47;;;16.90;99.90;;;;;;5049774;28;20530;-85
2022/08/27 06:16:05;;;;;;;9.75;2.92;;;16.90;99.90;;;;;;5067553;28;20032;-85
2022/08/27 06:18:35;;;;;;;10.13;2.53;;;16.90;99.90;;;;;;5051005;28;20041;-85
2022/08/27 06:21:00;;;;;;;7.32;2.40;;;17.00;99.90;;;;;;5041973;28;20047;-85
2022/08/27 06:23:27;;;;;;;6.70;2.28;;;17.00;99.90;;;;;;5071192;28;20040;-85
2022/08/27 06:25:53;;;;;;;6.70;1.85;;;17.00;99.90;;;;;;5054980;28;20409;-85
2022/08/27 06:28:24;;;;;;;10.88;2.47;;;17.10;99.90;;;;;;5053241;28;20059;-85
2022/08/27 06:30:50;;;;;;;7.97;2.08;;;17.10;99.90;;;;;;5037987;28;20823;-85
2022/08/27 06:33:16;;;;;;;7.85;2.35;;;17.10;99.90;;;;;;5071835;28;20048;-85
2022/08/27 06:35:42;;;;;;;8.27;2.35;;;17.10;99.90;;;;;;5071502;28;20072;-85
2022/08/27 06:38:07;;;;;;;7.00;2.30;;;17.20;99.90;;;;;;5070414;28;20462;-85
2022/08/27 06:40:33;;;;;;;8.80;2.47;;;17.20;99.90;;;;;;5055048;28;20029;-85
2022/08/27 06:42:59;;;;;;;7.70;2.22;;;17.30;99.90;;;;;;5066323;28;20049;-86
2022/08/27 06:45:25;;;;;;;9.20;2.40;;;17.30;99.90;;;;;;5051705;28;20051;-85
2022/08/27 06:47:51;;;;;;;8.93;2.25;;;17.40;99.90;;;;;;5051213;28;20048;-85
2022/08/27 06:50:19;;;;;;;8.10;2.30;;;17.40;99.90;;;;;;5051761;28;20043;-85
2022/08/27 06:52:45;;;;;;;6.90;2.03;;;17.40;99.90;;;;;;5054924;28;20072;-85
2022/08/27 06:55:10;;;;;;;8.18;2.42;;;17.50;99.90;;;;;;5061040;28;20125;-85
2022/08/27 06:57:36;;;;;;;8.43;2.25;;;17.50;99.90;;;;;;5051304;28;20457;-85
2022/08/27 07:00:04;;;;;;;8.07;2.30;;;17.60;99.90;;;;;;5071685;28;20044;-85
2022/08/27 07:02:30;;;;;;;7.18;2.05;;;17.70;99.90;;;;;;5069771;28;20044;-85
2022/08/27 07:04:56;;;;;;;7.85;2.22;;;17.70;99.90;;;;;;5035197;28;20041;-85
2022/08/27 07:07:21;;;;;;;8.90;2.08;;;17.80;99.90;;;;;;5058324;28;20093;-85
2022/08/27 07:09:47;;;;;;;7.50;2.08;;;17.90;99.90;;;;;;5070561;28;20063;-85
2022/08/27 07:12:13;;;;;;;10.77;2.63;;;17.90;99.90;;;;;;5054294;28;20040;-85
2022/08/27 07:14:39;;;;;;;8.55;1.92;;;18.00;99.90;;;;;;5070823;28;20076;-85
2022/08/27 07:17:07;;;;;;;7.45;2.30;;;18.10;99.90;;;;;;5070403;28;20076;-85
2022/08/27 07:19:37;;;;;;;8.13;2.10;;;18.20;99.90;;;;;;5052438;28;20394;-85
2022/08/27 07:22:03;;;;;;;8.20;1.88;;;18.30;99.90;;;;;;5050447;28;20041;-85
2022/08/27 07:24:29;;;;;;;11.18;2.60;;;18.40;99.90;;;;;;5057666;28;20033;-85
2022/08/27 07:26:54;;;;;;;7.68;2.03;;;18.50;99.90;;;;;;5051676;28;20040;-85
2022/08/27 07:29:20;;;;;;;8.25;2.30;;;18.60;99.90;;;;;;5051306;28;20090;-85
2022/08/27 07:31:46;;;;;;;7.10;2.25;;;18.60;99.90;;;;;;5066765;28;20512;-85
2022/08/27 07:34:12;;;;;;;7.45;2.28;;;18.70;99.90;;;;;;5053430;28;20047;-86
2022/08/27 07:36:38;;;;;;;9.60;2.97;;;18.80;99.90;;;;;;5053373;28;20044;-85
2022/08/27 07:39:04;;;;;;;9.40;2.28;;;18.80;99.90;;;;;;5039979;28;20037;-85
2022/08/27 07:41:31;;;;;;;9.75;3.03;;;18.90;99.90;;;;;;5050295;28;20044;-86
2022/08/27 07:46:45;;;;;;;7.20;2.10;;;19.10;99.90;;;;;;5070551;28;20044;-86
2022/08/27 07:49:11;;;;;;;7.88;1.92;;;19.20;99.90;;;;;;5070055;28;20048;-85
2022/08/27 07:51:36;;;;;;;7.72;1.90;;;19.30;99.90;;;;;;5069828;28;20048;-85
2022/08/27 07:54:02;;;;;;;8.98;2.40;;;19.40;99.90;;;;;;5069942;28;20524;-85
2022/08/27 07:56:28;;;;;;;9.48;2.30;;;19.40;99.90;;;;;;5070449;28;20464;-86
2022/08/27 07:58:53;;;;;;;7.38;1.98;;;19.50;99.90;;;;;;5071443;28;20459;-85
2022/08/27 08:01:19;;;;;;;9.75;2.22;;;19.60;99.90;;;;;;5068759;28;20044;-85
2022/08/27 08:03:45;;;;;;;7.68;1.90;;;19.60;99.90;;;;;;5069946;28;20041;-86
2022/08/27 08:06:14;;;;;;;9.98;2.22;;;19.70;99.90;;;;;;5070165;28;20127;-85
2022/08/27 08:08:40;;;;;;;9.15;2.10;;;19.80;99.90;;;;;;5062605;28;20102;-86
2022/08/27 08:11:12;;;;;;;10.43;2.10;;;19.80;99.90;;;;;;5049616;28;20049;-85
2022/08/27 08:13:37;;;;;;;9.73;2.10;;;19.90;99.90;;;;;;5044027;28;20045;-85
2022/08/27 08:16:04;;;;;;;10.02;2.78;;;20.00;99.90;;;;;;5033075;28;20037;-85
2022/08/27 08:18:30;;;;;;;10.55;3.65;;;20.00;99.90;;;;;;5042505;28;20119;-85
2022/08/27 08:21:00;;;;;;;10.95;2.75;;;20.10;99.90;;;;;;5069548;28;20462;-85
2022/08/27 08:23:27;;;;;;;9.68;2.22;;;20.10;99.90;;;;;;5068388;28;20043;-86
2022/08/27 08:25:52;;;;;;;9.85;2.80;;;20.10;99.90;;;;;;5046324;28;20068;-85
2022/08/27 08:28:18;;;;;;;8.98;2.55;;;20.10;99.90;;;;;;5033052;28;20076;-86
2022/08/27 08:30:45;;;;;;;7.75;2.13;;;20.10;99.90;;;;;;5054201;28;20115;-85
2022/08/27 08:33:12;;;;;;;7.18;2.22;;;20.10;99.90;;;;;;5069438;28;20066;-85
2022/08/27 08:35:38;;;;;;;10.27;2.42;;;20.10;99.90;;;;;;5068899;28;20064;-85
2022/08/27 08:38:04;;;;;;;10.45;2.50;;;20.10;99.90;;;;;;5056560;28;20036;-85
2022/08/27 08:40:38;;;;;;;7.40;2.25;;;20.10;99.90;;;;;;5050059;28;20086;-85
2022/08/27 08:43:19;;;;;;;10.48;2.70;;;20.20;99.90;;;;;;5061431;28;20409;-85
2022/08/27 08:45:46;;;;;;;9.27;2.60;;;20.20;99.90;;;;;;5052415;28;20047;-85
2022/08/27 08:48:18;;;;;;;9.70;2.45;;;20.30;99.90;;;;;;5068975;28;20532;-85
2022/08/27 08:50:57;;;;;;;7.55;1.80;;;20.30;99.90;;;;;;5069450;28;20045;-85
2022/08/27 08:53:46;;;;;;;8.57;2.20;;;20.30;99.90;;;;;;5052801;28;20040;-85
2022/08/27 08:56:23;;;;;;;8.25;2.22;;;20.30;99.90;;;;;;5051228;28;20052;-85
2022/08/27 08:58:56;;;;;;;8.35;1.73;;;20.40;99.90;;;;;;5063283;28;20032;-86
2022/08/27 09:01:23;;;;;;;8.68;2.22;;;20.40;99.90;;;;;;5048004;28;20037;-86
2022/08/27 09:03:58;;;;;;;8.60;2.10;;;20.40;99.90;;;;;;5048213;28;20041;-86
2022/08/27 09:06:43;;;;;;;9.93;3.42;;;20.50;99.90;;;;;;5065381;28;20036;-86
2022/08/27 09:09:36;;;;;;;13.32;2.92;;;20.50;99.90;;;;;;5048210;28;20099;-86
2022/08/27 09:12:13;;;;;;;9.75;2.38;;;20.50;99.90;;;;;;5065676;28;20075;-86
2022/08/27 09:14:57;;;;;;;8.77;1.85;;;20.50;99.90;;;;;;5047726;28;20505;-86
2022/08/27 09:17:24;;;;;;;12.20;2.30;;;20.60;99.90;;;;;;5065309;28;20040;-85
2022/08/27 09:19:49;;;;;;;9.43;1.95;;;20.60;99.90;;;;;;5068235;28;20398;-86
2022/08/27 09:22:59;;;;;;;11.07;2.30;;;20.70;99.90;;;;;;5035483;28;20123;-86
2022/08/27 09:25:32;;;;;;;10.43;3.30;;;20.70;99.90;;;;;;5033473;28;20041;-85
2022/08/27 09:28:01;;;;;;;11.60;3.00;;;20.80;99.90;;;;;;5051915;28;20071;-85
2022/08/27 09:30:39;;;;;;;10.95;2.72;;;20.90;99.90;;;;;;5068543;28;20153;-86
2022/08/27 09:33:05;;;;;;;9.45;2.50;;;20.90;99.90;;;;;;5045728;28;20033;-86
2022/08/27 09:35:41;;;;;;;9.38;2.35;;;20.90;99.90;;;;;;5048774;28;20106;-86
2022/08/27 09:38:07;;;;;;;11.65;2.50;;;20.90;99.90;;;;;;5056301;28;20379;-86
2022/08/27 09:40:49;;;;;;;10.88;2.15;;;20.90;99.90;;;;;;5032392;28;20094;-86
2022/08/27 09:43:14;;;;;;;8.02;1.77;;;20.80;99.90;;;;;;5047989;28;20072;-86
2022/08/27 09:45:50;;;;;;;8.35;1.95;;;20.80;99.90;;;;;;5067898;28;20111;-85
2022/08/27 09:48:20;;;;;;;9.85;2.40;;;20.80;99.90;;;;;;5052277;28;20494;-85
2022/08/27 09:50:51;;;;;;;10.93;2.65;;;20.80;99.90;;;;;;5041821;28;20045;-85
2022/08/27 09:53:32;;;;;;;8.07;2.08;;;20.80;99.90;;;;;;5056553;28;20116;-85
2022/08/27 09:56:02;;;;;;;9.73;2.38;;;20.80;99.90;;;;;;5038435;28;20050;-85
2022/08/27 09:58:32;;;;;;;11.80;2.40;;;20.90;99.90;;;;;;5053416;28;20075;-86
2022/08/27 10:01:04;;;;;;;10.63;2.72;;;20.90;99.90;;;;;;5072061;28;20037;-85
2022/08/27 10:03:30;;;;;;;10.07;2.13;;;20.90;99.90;;;;;;5071420;28;20567;-86
2022/08/27 10:05:56;;;;;;;12.20;2.30;;;21.00;99.90;;;;;;5071722;28;20041;-86
2022/08/27 10:08:44;;;;;;;11.68;2.10;;;21.10;99.90;;;;;;5070655;28;20111;-85
2022/08/27 10:11:16;;;;;;;8.10;1.90;;;21.10;99.90;;;;;;5035600;28;20055;-85
2022/08/27 10:13:55;;;;;;;8.90;2.38;;;21.10;99.90;;;;;;5052159;28;20714;-86
2022/08/27 10:16:54;;;;;;;7.90;1.85;;;21.20;99.90;;;;;;5052271;28;20062;-86
2022/08/27 10:19:53;;;;;;;8.05;2.17;;;21.20;99.90;;;;;;5052078;28;20044;-86
2022/08/27 10:22:22;;;;;;;10.65;2.42;;;21.30;99.90;;;;;;5063685;28;20044;-86
2022/08/27 10:25:06;;;;;;;9.82;2.30;;;21.30;99.90;;;;;;5055124;28;20040;-86
2022/08/27 10:27:36;;;;;;;10.07;2.05;;;21.30;99.90;;;;;;5073033;28;20401;-86
2022/08/27 10:30:10;;;;;;;9.30;1.80;;;21.30;99.90;;;;;;5054772;28;20032;-86
2022/08/27 10:32:54;;;;;;;9.57;2.17;;;21.30;99.90;;;;;;5071878;28;20032;-86
2022/08/27 10:35:46;;;;;;;7.00;1.92;;;21.30;99.90;;;;;;5059570;28;20041;-86
2022/08/27 10:38:30;;;;;;;10.82;2.30;;;21.30;99.90;;;;;;5031660;28;20518;-86
2022/08/27 10:41:02;;;;;;;10.57;2.60;;;21.30;99.90;;;;;;5069055;28;20073;-86
2022/08/27 10:43:46;;;;;;;12.93;3.00;;;21.40;99.90;;;;;;5071483;28;20078;-86
2022/08/27 10:46:49;;;;;;;12.10;3.42;;;21.40;99.90;;;;;;5054088;28;20136;-86
2022/08/27 10:49:51;;;;;;;12.02;3.75;;;21.50;99.90;;;;;;5051452;28;20044;-86
2022/08/27 10:52:38;;;;;;;7.85;2.03;;;21.50;99.90;;;;;;5034539;28;20063;-86
2022/08/27 10:55:10;;;;;;;8.02;1.80;;;21.60;99.90;;;;;;5058352;28;20470;-86
2022/08/27 10:58:12;;;;;;;8.80;2.30;;;21.70;99.90;;;;;;5059909;28;20041;-86
2022/08/27 11:00:49;;;;;;;7.65;1.95;;;21.80;99.90;;;;;;5071669;28;20511;-86
2022/08/27 11:03:34;;;;;;;8.50;1.95;;;21.90;99.90;;;;;;5070950;28;20047;-86
2022/08/27 11:06:08;;;;;;;10.02;2.00;;;22.00;99.90;;;;;;5054134;28;20115;-86
2022/08/27 11:08:48;;;;;;;9.93;2.10;;;22.00;99.90;;;;;;5053042;28;20409;-86
2022/08/27 11:11:25;;;;;;;10.02;1.90;;;22.00;99.90;;;;;;5071311;28;20044;-86
2022/08/27 11:13:52;;;;;;;10.40;1.90;;;22.10;99.80;;;;;;5053958;28;20045;-86
2022/08/27 11:16:24;;;;;;;9.63;2.50;;;22.10;99.10;;;;;;5055266;28;20033;-86
2022/08/27 11:18:57;;;;;;;10.10;2.80;;;22.20;98.70;;;;;;5035621;28;20090;-86
2022/08/27 11:21:33;;;;;;;8.32;1.70;;;22.30;98.50;;;;;;5040274;28;20044;-86
2022/08/27 11:24:33;;;;;;;9.52;3.30;;;22.30;98.10;;;;;;5051156;28;20439;-86
2022/08/27 11:27:03;;;;;;;10.27;2.55;;;22.30;97.70;;;;;;5064499;28;20056;-86
2022/08/27 11:29:45;;;;;;;9.65;1.83;;;22.30;97.60;;;;;;5050874;28;20124;-86
2022/08/27 11:32:48;;;;;;;7.88;1.80;;;22.50;97.20;;;;;;5042022;28;20040;-86
2022/08/27 11:35:34;;;;;;;;;;;22.50;97.20;;;;;;5050953;28;20099;-86
2022/08/27 11:38:15;;;;;;;;;;;22.50;98.50;;;;;;5059006;28;20332;-86
2022/08/27 11:40:50;;;;;;;;;;;22.40;98.70;;;;;;5051532;28;20101;-86
2022/08/27 11:43:18;;;;;;;;;;;22.40;98.50;;;;;;5052410;28;19923;-86
2022/08/27 11:45:52;;;;;;;;;;;22.40;98.60;;;;;;5056698;28;20404;-86
2022/08/27 11:48:23;;;;;;;;;;;22.50;99.30;;;;;;5050665;28;19917;-86
2022/08/27 11:50:56;;;;;;;;;;;22.50;99.10;;;;;;5050389;28;19917;-86
2022/08/27 11:53:27;;;;;;;;;;;22.60;99.70;;;;;;5051094;28;19967;-86
2022/08/27 11:55:53;;;;;;;;;;;22.60;99.70;;;;;;5062484;28;20370;-86
2022/08/27 11:58:22;;;;;;;;;;;22.70;99.70;;;;;;5070821;28;19920;-86
2022/08/27 12:00:48;;;;;;;;;;;22.70;99.40;;;;;;5053852;28;19916;-86
2022/08/27 12:03:17;;;;;;;;;;;22.80;99.40;;;;;;5070071;28;19916;-86
2022/08/27 12:05:47;;;;;;;;;;;22.90;99.60;;;;;;5052898;28;19934;-87
2022/08/27 12:08:22;;;;;;;;;;;23.00;99.50;;;;;;5037585;28;19917;-86
2022/08/27 12:11:03;;;;;;;;;;;23.00;98.30;;;;;;5050585;28;19921;-86
2022/08/27 12:13:38;;;;;;;;;;;23.10;97.30;;;;;;5045863;28;19920;-86
2022/08/27 12:16:06;;;;;;;;;;;23.20;98.20;;;;;;5053871;28;19975;-86
2022/08/27 12:18:32;;;;;;;;;;;23.20;97.50;;;;;;5065425;28;19924;-86
2022/08/27 12:21:14;;;;;;;;;;;23.30;97.10;;;;;;5032958;28;20432;-86
2022/08/27 12:23:45;;;;;;;;;;;23.40;97.20;;;;;;5056417;28;19924;-86
2022/08/27 12:26:15;;;;;;;;;;;23.60;96.90;;;;;;5053155;28;19920;-87
2022/08/27 12:28:41;;;;;;;;;;;23.60;95.10;;;;;;5068944;28;19920;-87
2022/08/27 12:31:07;;;;;;;;;;;23.70;93.90;;;;;;5038003;28;19921;-87
2022/08/27 12:33:35;;;;;;;;;;;23.80;93.50;;;;;;5066664;28;20062;-87
2022/08/27 12:36:08;;;;;;;;;;;23.90;94.50;;;;;;5062800;28;19920;-87
2022/08/27 12:38:46;;;;;;;;;;;24.00;94.90;;;;;;5053169;28;19952;-87
2022/08/27 12:41:22;;;;;;;;;;;24.10;93.20;;;;;;5069879;28;19916;-87
2022/08/27 12:43:47;;;;;;;;;;;24.20;91.90;;;;;;5052439;28;19916;-87
2022/08/27 12:46:14;;;;;;;;;;;24.30;90.50;;;;;;5067524;28;20077;-86
2022/08/27 12:48:41;;;;;;;;;;;24.50;91.70;;;;;;5059697;28;19962;-86
2022/08/27 12:51:17;;;;;;;;;;;24.70;78.90;;;;;;5032939;28;19917;-87
2022/08/27 12:53:42;;;;;;;;;;;24.90;82.60;;;;;;5067522;28;19927;-87
2022/08/27 12:56:17;;;;;;;;;;;25.20;82.00;;;;;;5070066;28;19927;-87
2022/08/27 12:58:58;;;;;;;;;;;25.40;78.00;;;;;;5064902;28;19970;-86
2022/08/27 13:01:42;;;;;;;;;;;25.50;74.90;;;;;;5049415;28;20377;-87
2022/08/27 13:04:16;;;;;;;;;;;25.40;73.90;;;;;;5032673;28;19916;-87
2022/08/27 13:06:44;;;;;;;;;;;25.40;76.70;;;;;;5060148;28;20366;-85
2022/08/27 13:09:09;;;;;;;;;;;25.40;73.20;;;;;;5033400;28;20374;-84
2022/08/27 13:11:44;;;;;;;;;;;25.40;73.10;;;;;;5048915;28;19947;-84
2022/08/27 13:14:11;;;;;;;;;;;25.50;72.80;;;;;;5032715;28;20529;-84
2022/08/27 13:16:40;;;;;;;;;;;25.60;71.90;;;;;;5049768;28;19923;-84